createdAt,value
2023-03-14T00:01:34.106Z,9.59
2023-03-14T00:03:26.079Z,9.57
2023-03-14T00:05:18.158Z,9.57
2023-03-14T00:07:12.531Z,9.57
2023-03-14T00:09:04.144Z,9.57
2023-03-14T00:10:55.383Z,9.59
2023-03-14T00:12:47.035Z,9.62
2023-03-14T00:14:39.063Z,9.65
2023-03-14T00:16:30.652Z,9.67
2023-03-14T00:18:22.067Z,9.69
2023-03-14T00:20:13.724Z,9.76
2023-03-14T00:22:05.175Z,9.87
2023-03-14T00:23:56.635Z,9.92
2023-03-14T00:25:47.975Z,10.01
2023-03-14T00:27:39.402Z,10.12
2023-03-14T00:29:30.948Z,10.23
2023-03-14T00:31:22.904Z,10.30
2023-03-14T00:33:14.768Z,10.34
2023-03-14T00:35:06.676Z,10.39
2023-03-14T00:36:58.683Z,10.43
2023-03-14T00:38:52.000Z,10.56
2023-03-14T00:40:43.480Z,10.66
2023-03-14T00:42:35.551Z,10.75
2023-03-14T00:44:27.201Z,10.85
2023-03-14T00:46:19.082Z,10.90
2023-03-14T00:48:10.484Z,10.94
2023-03-14T00:50:02.422Z,10.95
2023-03-14T00:51:54.412Z,10.96
2023-03-14T00:53:46.399Z,10.99
2023-03-14T00:55:43.371Z,10.99
2023-03-14T00:57:34.929Z,10.98
2023-03-14T00:59:26.631Z,10.96
2023-03-14T01:01:19.782Z,10.93
2023-03-14T01:03:12.212Z,10.88
2023-03-14T01:05:03.808Z,10.81
2023-03-14T01:06:55.273Z,10.79
2023-03-14T01:08:47.274Z,10.78
2023-03-14T01:10:41.242Z,10.75
2023-03-14T01:12:32.988Z,10.70
2023-03-14T01:14:24.792Z,10.65
2023-03-14T01:16:17.577Z,10.59
2023-03-14T01:18:09.129Z,10.55
2023-03-14T01:20:01.761Z,10.51
2023-03-14T01:21:53.435Z,10.46
2023-03-14T01:23:45.894Z,10.43
2023-03-14T01:25:42.340Z,10.39
2023-03-14T01:27:34.433Z,10.33
2023-03-14T01:29:26.392Z,10.26
2023-03-14T01:31:18.224Z,10.19
2023-03-14T01:33:09.927Z,10.10
2023-03-14T01:35:01.242Z,10.03
2023-03-14T01:36:53.091Z,9.94
2023-03-14T01:38:44.855Z,9.84
2023-03-14T01:40:44.295Z,9.77
2023-03-14T01:42:35.712Z,9.70
2023-03-14T01:44:27.104Z,9.65
2023-03-14T01:46:40.466Z,9.60
2023-03-14T01:48:53.686Z,9.53
2023-03-14T01:50:45.602Z,9.47
2023-03-14T01:52:43.054Z,9.41
2023-03-14T01:54:37.028Z,9.35
2023-03-14T01:56:29.245Z,9.29
2023-03-14T01:58:21.242Z,9.21
2023-03-14T02:00:15.985Z,9.13
2023-03-14T02:02:11.476Z,9.06
2023-03-14T02:04:05.445Z,8.99
2023-03-14T02:06:01.013Z,8.94
2023-03-14T02:07:58.132Z,8.93
2023-03-14T02:09:50.446Z,8.89
2023-03-14T02:11:42.030Z,8.85
2023-03-14T02:13:33.799Z,8.82
2023-03-14T02:15:25.341Z,8.78
2023-03-14T02:17:19.031Z,8.76
2023-03-14T02:19:11.728Z,8.73
2023-03-14T02:21:13.350Z,8.71
2023-03-14T02:23:05.289Z,8.70
2023-03-14T02:25:10.505Z,8.65
2023-03-14T02:27:07.654Z,8.65
2023-03-14T02:28:59.368Z,8.66
2023-03-14T02:30:50.937Z,8.69
2023-03-14T02:32:46.705Z,8.71
2023-03-14T02:34:38.488Z,8.74
2023-03-14T02:36:30.779Z,8.76
2023-03-14T02:38:37.149Z,8.78
2023-03-14T02:40:29.016Z,8.81
2023-03-14T02:42:21.723Z,8.83
2023-03-14T02:44:13.065Z,8.88
2023-03-14T02:46:06.337Z,8.91
2023-03-14T02:48:03.670Z,8.97
2023-03-14T02:50:00.829Z,9.00
2023-03-14T02:51:52.556Z,9.03
2023-03-14T02:53:44.167Z,9.07
2023-03-14T02:55:36.188Z,9.09
2023-03-14T02:57:28.005Z,9.14
2023-03-14T02:59:19.329Z,9.19
2023-03-14T03:01:10.960Z,9.22
2023-03-14T03:03:02.734Z,9.24
2023-03-14T03:04:54.471Z,9.25
2023-03-14T03:06:46.136Z,9.26
2023-03-14T03:08:38.228Z,9.26
2023-03-14T03:10:30.215Z,9.28
2023-03-14T03:12:21.715Z,9.28
2023-03-14T03:14:13.770Z,9.27
2023-03-14T03:16:05.798Z,9.26
2023-03-14T03:17:57.632Z,9.26
2023-03-14T03:19:49.164Z,9.23
2023-03-14T03:21:44.086Z,9.25
2023-03-14T03:23:35.694Z,9.23
2023-03-14T03:25:27.977Z,9.24
2023-03-14T03:27:19.449Z,9.26
2023-03-14T03:29:11.339Z,9.25
2023-03-14T03:31:13.188Z,9.23
2023-03-14T03:33:05.045Z,9.25
2023-03-14T03:34:56.362Z,9.26
2023-03-14T03:36:47.771Z,9.31
2023-03-14T03:38:39.284Z,9.35
2023-03-14T03:40:31.161Z,9.42
2023-03-14T03:42:22.599Z,9.44
2023-03-14T03:44:14.633Z,9.48
2023-03-14T03:46:07.798Z,9.50
2023-03-14T03:48:00.741Z,9.49
2023-03-14T03:49:52.660Z,9.51
2023-03-14T03:51:44.255Z,9.51
2023-03-14T03:53:35.624Z,9.52
2023-03-14T03:55:29.110Z,9.52
2023-03-14T03:57:21.247Z,9.56
2023-03-14T03:59:12.926Z,9.55
2023-03-14T04:01:04.477Z,9.54
2023-03-14T04:02:56.255Z,9.54
2023-03-14T04:04:48.068Z,9.54
2023-03-14T04:06:40.454Z,9.55
2023-03-14T04:08:32.227Z,9.55
2023-03-14T04:10:23.789Z,9.54
2023-03-14T04:12:15.584Z,9.52
2023-03-14T04:14:07.404Z,9.50
2023-03-14T04:15:59.030Z,9.51
2023-03-14T04:17:51.141Z,9.51
2023-03-14T04:19:43.258Z,9.50
2023-03-14T04:21:34.643Z,9.51
2023-03-14T04:23:26.477Z,9.51
2023-03-14T04:25:21.037Z,9.53
2023-03-14T04:27:12.804Z,9.58
2023-03-14T04:29:04.712Z,9.56
2023-03-14T04:30:56.399Z,9.56
2023-03-14T04:32:48.155Z,9.53
2023-03-14T04:34:40.041Z,9.52
2023-03-14T04:36:32.031Z,9.51
2023-03-14T04:38:23.668Z,9.48
2023-03-14T04:40:18.591Z,9.46
2023-03-14T04:42:10.617Z,9.43
2023-03-14T04:44:02.585Z,9.43
2023-03-14T04:45:57.744Z,9.43
2023-03-14T04:47:49.432Z,9.45
2023-03-14T04:49:41.019Z,9.45
2023-03-14T04:51:32.843Z,9.44
2023-03-14T04:53:24.781Z,9.42
2023-03-14T04:55:16.104Z,9.41
2023-03-14T04:57:07.414Z,9.41
2023-03-14T04:58:59.176Z,9.42
2023-03-14T05:00:51.287Z,9.42
2023-03-14T05:02:42.581Z,9.42
2023-03-14T05:04:34.918Z,9.43
2023-03-14T05:06:26.730Z,9.44
2023-03-14T05:08:18.495Z,9.44
2023-03-14T05:10:11.105Z,9.42
2023-03-14T05:12:02.952Z,9.42
2023-03-14T05:13:54.775Z,9.42
2023-03-14T05:15:46.372Z,9.41
2023-03-14T05:17:38.231Z,9.40
2023-03-14T05:19:29.989Z,9.39
2023-03-14T05:21:21.327Z,9.35
2023-03-14T05:23:13.752Z,9.34
2023-03-14T05:25:05.889Z,9.32
2023-03-14T05:26:57.751Z,9.29
2023-03-14T05:28:49.404Z,9.26
2023-03-14T05:30:41.287Z,9.23
2023-03-14T05:32:32.700Z,9.20
2023-03-14T05:34:24.700Z,9.18
2023-03-14T05:36:16.630Z,9.16
2023-03-14T05:38:07.888Z,9.14
2023-03-14T05:39:59.781Z,9.13
2023-03-14T05:41:52.056Z,9.10
2023-03-14T05:43:43.520Z,9.09
2023-03-14T05:45:36.450Z,9.05
2023-03-14T05:47:29.213Z,9.05
2023-03-14T05:49:20.824Z,9.04
2023-03-14T05:51:12.617Z,9.01
2023-03-14T05:53:04.255Z,8.99
2023-03-14T05:54:56.097Z,8.99
2023-03-14T05:56:47.486Z,8.99
2023-03-14T05:58:39.770Z,8.98
2023-03-14T06:00:31.004Z,8.98
2023-03-14T06:02:22.776Z,8.97
2023-03-14T06:04:14.703Z,8.88
2023-03-14T06:06:06.897Z,8.95
2023-03-14T06:07:58.531Z,8.96
2023-03-14T06:09:49.860Z,8.98
2023-03-14T06:11:41.757Z,9.00
2023-03-14T06:13:33.597Z,9.03
2023-03-14T06:15:25.306Z,9.07
2023-03-14T06:17:17.166Z,9.11
2023-03-14T06:19:08.888Z,9.14
2023-03-14T06:21:00.829Z,9.18
2023-03-14T06:22:52.167Z,9.22
2023-03-14T06:24:43.581Z,9.26
2023-03-14T06:26:35.161Z,9.31
2023-03-14T06:28:26.708Z,9.37
2023-03-14T06:30:18.131Z,9.41
2023-03-14T06:32:09.997Z,9.46
2023-03-14T06:34:01.527Z,9.50
2023-03-14T06:35:53.070Z,9.52
2023-03-14T06:37:45.206Z,9.53
2023-03-14T06:39:36.602Z,9.55
2023-03-14T06:41:27.843Z,9.56
2023-03-14T06:43:18.873Z,9.58
2023-03-14T06:45:11.020Z,9.60
2023-03-14T06:47:02.627Z,9.61
2023-03-14T06:48:54.653Z,9.60
2023-03-14T06:50:45.890Z,9.61
2023-03-14T06:52:37.620Z,9.62
2023-03-14T06:54:28.830Z,9.63
2023-03-14T06:56:20.923Z,9.64
2023-03-14T06:58:12.773Z,9.66
2023-03-14T07:00:06.041Z,9.68
2023-03-14T07:01:57.719Z,9.71
2023-03-14T07:03:49.696Z,9.74
2023-03-14T07:05:42.402Z,9.76
2023-03-14T07:07:34.044Z,9.78
2023-03-14T07:09:25.358Z,9.80
2023-03-14T07:11:16.768Z,9.80
2023-03-14T07:13:08.639Z,9.80
2023-03-14T07:15:08.701Z,9.80
2023-03-14T07:17:08.981Z,9.79
2023-03-14T07:19:01.824Z,9.77
2023-03-14T07:20:53.347Z,9.75
2023-03-14T07:22:49.000Z,9.74
2023-03-14T07:24:40.921Z,9.72
2023-03-14T07:26:32.856Z,9.71
2023-03-14T07:28:24.725Z,9.70
2023-03-14T07:30:16.769Z,9.71
2023-03-14T07:32:09.144Z,9.74
2023-03-14T07:34:00.697Z,9.76
2023-03-14T07:35:52.658Z,9.78
2023-03-14T07:37:44.376Z,9.82
2023-03-14T07:39:35.623Z,9.84
2023-03-14T07:41:27.360Z,9.88
2023-03-14T07:43:19.391Z,9.88
2023-03-14T07:45:12.479Z,9.90
2023-03-14T07:47:04.411Z,9.91
2023-03-14T07:48:56.290Z,9.93
2023-03-14T07:50:51.115Z,9.95
2023-03-14T07:52:43.381Z,9.96
2023-03-14T07:54:35.585Z,9.95
2023-03-14T07:56:27.386Z,9.96
2023-03-14T07:58:19.779Z,9.96
2023-03-14T08:00:14.223Z,9.99
2023-03-14T08:02:11.967Z,10.01
2023-03-14T08:04:03.914Z,10.04
2023-03-14T08:05:55.523Z,10.05
2023-03-14T08:07:47.220Z,10.06
2023-03-14T08:09:38.891Z,10.06
2023-03-14T08:11:31.209Z,10.05
2023-03-14T08:13:24.930Z,10.04
2023-03-14T08:15:16.468Z,10.06
2023-03-14T08:17:09.326Z,10.06
2023-03-14T08:19:01.449Z,10.04
2023-03-14T08:20:53.190Z,10.03
2023-03-14T08:22:45.497Z,10.02
2023-03-14T08:24:37.471Z,10.01
2023-03-14T08:26:29.157Z,10.00
2023-03-14T08:28:21.055Z,10.00
2023-03-14T08:30:17.991Z,9.98
2023-03-14T08:32:09.891Z,9.98
2023-03-14T08:34:03.015Z,9.99
2023-03-14T08:35:56.007Z,10.00
2023-03-14T08:37:47.998Z,10.01
2023-03-14T08:39:39.658Z,10.02
2023-03-14T08:41:31.268Z,10.05
2023-03-14T08:43:22.663Z,10.07
2023-03-14T08:45:17.385Z,10.10
2023-03-14T08:47:09.312Z,10.16
2023-03-14T08:49:00.710Z,10.22
2023-03-14T08:50:52.735Z,10.26
2023-03-14T08:52:44.754Z,10.31
2023-03-14T08:54:36.715Z,10.35
2023-03-14T08:56:28.555Z,10.40
2023-03-14T08:58:20.023Z,10.46
2023-03-14T09:00:15.571Z,10.50
2023-03-14T09:02:11.220Z,10.55
2023-03-14T09:04:04.946Z,10.59
2023-03-14T09:05:56.623Z,10.61
2023-03-14T09:07:48.452Z,10.63
2023-03-14T09:09:39.907Z,10.65
2023-03-14T09:11:31.773Z,10.67
2023-03-14T09:13:23.336Z,10.67
2023-03-14T09:15:15.536Z,10.68
2023-03-14T09:17:07.372Z,10.68
2023-03-14T09:19:00.800Z,10.69
2023-03-14T09:20:52.480Z,10.70
2023-03-14T09:22:43.809Z,10.73
2023-03-14T09:24:35.677Z,10.75
2023-03-14T09:26:27.668Z,10.79
2023-03-14T09:28:19.135Z,10.84
2023-03-14T09:30:11.776Z,10.89
2023-03-14T09:32:03.284Z,10.91
2023-03-14T09:33:55.124Z,10.90
2023-03-14T09:35:46.712Z,10.93
2023-03-14T09:37:38.340Z,10.94
2023-03-14T09:39:29.813Z,10.95
2023-03-14T09:41:51.431Z,10.96
2023-03-14T09:43:46.112Z,10.96
2023-03-14T09:45:41.492Z,10.97
2023-03-14T09:47:35.776Z,10.97
2023-03-14T09:49:33.722Z,10.97
2023-03-14T09:51:25.595Z,10.97
2023-03-14T09:53:19.941Z,10.97
2023-03-14T09:55:22.789Z,10.98
2023-03-14T09:57:19.872Z,11.00
2023-03-14T09:59:14.586Z,11.04
2023-03-14T10:01:09.025Z,11.05
2023-03-14T10:03:12.625Z,11.06
2023-03-14T10:05:09.137Z,11.09
2023-03-14T10:07:02.085Z,11.12
2023-03-14T10:08:55.312Z,11.14
2023-03-14T10:10:47.194Z,11.18
2023-03-14T10:12:40.186Z,11.18
2023-03-14T10:14:34.735Z,11.19
2023-03-14T10:16:30.728Z,11.18
2023-03-14T10:18:25.377Z,11.21
2023-03-14T10:20:35.928Z,11.23
2023-03-14T10:22:30.933Z,11.30
2023-03-14T10:24:31.264Z,11.37
2023-03-14T10:26:29.002Z,11.44
2023-03-14T10:28:46.242Z,11.50
2023-03-14T10:30:45.538Z,11.56
2023-03-14T10:32:39.174Z,11.63
2023-03-14T10:34:34.074Z,11.70
2023-03-14T10:36:29.430Z,11.76
2023-03-14T10:38:21.090Z,11.85
2023-03-14T10:40:14.709Z,11.94
2023-03-14T10:42:31.063Z,11.97
2023-03-14T10:44:26.694Z,12.15
2023-03-14T10:46:19.881Z,12.22
2023-03-14T10:48:37.925Z,12.32
2023-03-14T10:50:32.079Z,12.45
2023-03-14T10:52:31.134Z,12.59
2023-03-14T10:54:31.016Z,12.71
2023-03-14T10:56:24.374Z,12.71
2023-03-14T10:58:31.977Z,12.73
2023-03-14T11:00:24.374Z,12.77
2023-03-14T11:02:22.765Z,12.76
2023-03-14T11:04:44.578Z,12.78
2023-03-14T11:06:46.026Z,12.87
2023-03-14T11:08:50.467Z,12.97
2023-03-14T11:10:45.444Z,13.04
2023-03-14T11:13:08.016Z,13.13
2023-03-14T11:15:05.276Z,13.40
2023-03-14T11:17:15.364Z,13.70
2023-03-14T11:19:35.743Z,13.96
2023-03-14T11:22:01.141Z,14.20
2023-03-14T11:24:23.959Z,14.31
2023-03-14T11:26:30.951Z,14.28
2023-03-14T11:28:38.457Z,14.31
2023-03-14T11:30:35.931Z,14.28
2023-03-14T11:32:47.111Z,14.27
2023-03-14T11:34:45.648Z,14.28
2023-03-14T11:36:43.153Z,14.33
2023-03-14T11:38:52.556Z,14.29
2023-03-14T11:40:45.155Z,14.28
2023-03-14T11:42:36.998Z,14.26
2023-03-14T11:44:35.850Z,14.22
2023-03-14T11:46:31.165Z,14.14
2023-03-14T11:48:41.915Z,14.02
2023-03-14T11:50:34.876Z,13.94
2023-03-14T11:52:28.237Z,13.92
2023-03-14T11:54:27.542Z,13.87
2023-03-14T11:56:35.063Z,13.88
2023-03-14T11:58:30.438Z,13.94
2023-03-14T12:00:24.876Z,13.95
2023-03-14T12:02:28.833Z,13.94
2023-03-14T12:04:33.264Z,13.92
2023-03-14T12:06:29.273Z,13.89
2023-03-14T12:08:42.922Z,13.84
2023-03-14T12:10:59.516Z,13.79
2023-03-14T12:12:51.570Z,13.79
2023-03-14T12:14:52.850Z,13.81
2023-03-14T12:16:47.447Z,13.89
2023-03-14T12:18:40.493Z,13.94
2023-03-14T12:20:31.972Z,13.94
2023-03-14T12:22:29.193Z,13.91
2023-03-14T12:24:30.205Z,13.83
2023-03-14T12:26:24.900Z,13.77
2023-03-14T12:28:21.383Z,13.72
2023-03-14T12:30:26.677Z,13.67
2023-03-14T12:32:25.652Z,13.67
2023-03-14T12:34:17.293Z,13.66
2023-03-14T12:36:20.004Z,13.70
2023-03-14T12:38:27.825Z,13.75
2023-03-14T12:40:22.545Z,13.77
2023-03-14T12:42:24.009Z,13.74
2023-03-14T12:44:31.177Z,13.69
2023-03-14T12:46:27.962Z,13.70
2023-03-14T12:48:26.327Z,13.63
2023-03-14T12:50:42.102Z,13.63
2023-03-14T12:53:04.237Z,13.62
2023-03-14T12:55:14.737Z,13.61
2023-03-14T12:57:27.252Z,13.55
2023-03-14T12:59:29.176Z,13.48
2023-03-14T13:01:21.493Z,13.41
2023-03-14T13:03:17.733Z,13.37
2023-03-14T13:05:25.647Z,13.33
2023-03-14T13:07:45.581Z,13.32
2023-03-14T13:09:52.187Z,13.28
2023-03-14T13:11:44.332Z,13.26
2023-03-14T13:13:38.438Z,13.23
2023-03-14T13:15:33.459Z,13.21
2023-03-14T13:17:37.154Z,13.24
2023-03-14T13:19:31.724Z,13.23
2023-03-14T13:21:25.548Z,13.20
2023-03-14T13:23:22.347Z,13.17
2023-03-14T13:25:14.669Z,13.13
2023-03-14T13:27:25.035Z,13.17
2023-03-14T13:29:18.020Z,13.18
2023-03-14T13:31:23.561Z,13.22
2023-03-14T13:33:23.531Z,13.24
2023-03-14T13:35:27.062Z,13.28
2023-03-14T13:37:22.256Z,13.30
2023-03-14T13:39:20.265Z,13.27
2023-03-14T13:41:12.523Z,13.23
2023-03-14T13:43:20.111Z,13.22
2023-03-14T13:45:14.838Z,13.23
2023-03-14T13:47:12.854Z,13.22
2023-03-14T13:49:06.865Z,13.20
2023-03-14T13:51:07.323Z,13.17
2023-03-14T13:52:59.105Z,13.13
2023-03-14T13:54:55.141Z,13.10
2023-03-14T13:56:47.280Z,13.10
2023-03-14T13:58:39.991Z,13.08
2023-03-14T14:00:31.580Z,13.06
2023-03-14T14:02:23.858Z,13.03
2023-03-14T14:04:19.456Z,13.00
2023-03-14T14:06:35.907Z,12.92
2023-03-14T14:08:28.217Z,12.90
2023-03-14T14:10:20.850Z,12.86
2023-03-14T14:12:19.051Z,12.84
2023-03-14T14:14:14.744Z,12.80
2023-03-14T14:16:06.761Z,12.80
2023-03-14T14:18:18.431Z,12.80
2023-03-14T14:20:33.543Z,12.77
2023-03-14T14:22:26.899Z,12.73
2023-03-14T14:24:18.936Z,12.70
2023-03-14T14:26:17.299Z,12.66
2023-03-14T14:28:24.000Z,12.58
2023-03-14T14:30:18.093Z,12.48
2023-03-14T14:32:10.156Z,12.41
2023-03-14T14:34:03.772Z,12.34
2023-03-14T14:35:58.797Z,12.28
2023-03-14T14:37:51.124Z,12.23
2023-03-14T14:39:42.896Z,12.21
2023-03-14T14:41:37.192Z,12.21
2023-03-14T14:43:29.830Z,12.21
2023-03-14T14:45:23.634Z,12.21
2023-03-14T14:47:16.936Z,12.21
2023-03-14T14:49:14.728Z,12.21
2023-03-14T14:51:08.074Z,12.21
2023-03-14T14:53:02.572Z,12.23
2023-03-14T14:54:59.113Z,12.26
2023-03-14T14:56:53.790Z,12.31
2023-03-14T14:58:47.078Z,12.35
2023-03-14T15:00:41.020Z,12.38
2023-03-14T15:02:45.211Z,12.42
2023-03-14T15:04:36.747Z,12.47
2023-03-14T15:06:30.184Z,12.51
2023-03-14T15:08:22.235Z,12.55
2023-03-14T15:10:25.445Z,12.60
2023-03-14T15:12:17.278Z,12.66
2023-03-14T15:14:08.688Z,12.72
2023-03-14T15:16:00.755Z,12.77
2023-03-14T15:17:52.544Z,12.83
2023-03-14T15:19:44.312Z,12.90
2023-03-14T15:21:35.860Z,12.96
2023-03-14T15:23:27.877Z,13.08
2023-03-14T15:25:43.592Z,13.24
2023-03-14T15:27:33.450Z,13.34
2023-03-14T15:29:24.760Z,13.40
2023-03-14T15:31:18.696Z,13.54
2023-03-14T15:33:10.754Z,13.57
2023-03-14T15:35:02.518Z,13.57
2023-03-14T15:36:54.158Z,13.53
2023-03-14T15:38:45.598Z,13.44
2023-03-14T15:40:37.199Z,13.37
2023-03-14T15:42:29.167Z,13.26
2023-03-14T15:44:20.811Z,13.18
2023-03-14T15:46:13.178Z,13.08
2023-03-14T15:48:05.678Z,13.02
2023-03-14T15:49:57.159Z,12.95
2023-03-14T15:51:49.952Z,12.88
2023-03-14T15:53:44.220Z,12.81
2023-03-14T15:55:36.010Z,12.74
2023-03-14T15:57:31.691Z,12.67
2023-03-14T15:59:24.373Z,12.59
2023-03-14T16:01:17.616Z,12.51
2023-03-14T16:03:09.110Z,12.46
2023-03-14T16:05:00.986Z,12.42
2023-03-14T16:06:52.469Z,12.38
2023-03-14T16:08:44.287Z,12.35
2023-03-14T16:10:35.592Z,12.34
2023-03-14T16:12:27.542Z,12.31
2023-03-14T16:14:19.379Z,12.29
2023-03-14T16:16:13.260Z,12.24
2023-03-14T16:18:20.722Z,12.24
2023-03-14T16:20:13.209Z,12.21
2023-03-14T16:22:05.264Z,12.18
2023-03-14T16:23:57.377Z,12.17
2023-03-14T16:25:48.996Z,12.20
2023-03-14T16:27:40.411Z,12.26
2023-03-14T16:29:32.238Z,12.31
2023-03-14T16:31:26.040Z,12.27
2023-03-14T16:33:18.010Z,12.22
2023-03-14T16:35:09.951Z,12.21
2023-03-14T16:37:01.446Z,12.22
2023-03-14T16:38:52.984Z,12.17
2023-03-14T16:40:44.569Z,12.13
2023-03-14T16:42:36.167Z,12.08
2023-03-14T16:44:28.364Z,12.04
2023-03-14T16:46:22.615Z,11.99
2023-03-14T16:48:14.539Z,11.96
2023-03-14T16:50:06.616Z,11.91
2023-03-14T16:51:58.493Z,11.89
2023-03-14T16:53:50.378Z,11.85
2023-03-14T16:55:43.003Z,11.81
2023-03-14T16:57:34.767Z,11.75
2023-03-14T16:59:29.020Z,11.73
2023-03-14T17:01:21.454Z,11.67
2023-03-14T17:03:15.980Z,11.63
2023-03-14T17:05:07.719Z,11.59
2023-03-14T17:06:59.145Z,11.54
2023-03-14T17:08:51.478Z,11.46
2023-03-14T17:10:42.877Z,11.42
2023-03-14T17:12:34.559Z,11.38
2023-03-14T17:14:26.591Z,11.33
2023-03-14T17:16:19.426Z,11.27
2023-03-14T17:18:11.189Z,11.22
2023-03-14T17:20:03.793Z,11.17
2023-03-14T17:22:09.427Z,11.11
2023-03-14T17:24:06.666Z,11.04
2023-03-14T17:25:58.605Z,10.97
2023-03-14T17:27:49.714Z,10.88
2023-03-14T17:29:41.671Z,10.87
2023-03-14T17:31:33.406Z,10.80
2023-03-14T17:33:25.119Z,10.76
2023-03-14T17:35:16.618Z,10.73
2023-03-14T17:37:07.952Z,10.69
2023-03-14T17:38:59.980Z,10.68
2023-03-14T17:40:51.945Z,10.66
2023-03-14T17:42:43.790Z,10.65
2023-03-14T17:44:35.802Z,10.63
2023-03-14T17:46:27.870Z,10.62
2023-03-14T17:48:19.908Z,10.60
2023-03-14T17:50:12.193Z,10.58
2023-03-14T17:52:04.388Z,10.57
2023-03-14T17:53:56.970Z,10.56
2023-03-14T17:55:49.972Z,10.54
2023-03-14T17:57:44.153Z,10.52
2023-03-14T17:59:35.891Z,10.49
2023-03-14T18:01:27.929Z,10.47
2023-03-14T18:03:19.583Z,10.45
2023-03-14T18:05:12.137Z,10.42
2023-03-14T18:07:04.513Z,10.40
2023-03-14T18:08:58.569Z,10.37
2023-03-14T18:10:54.822Z,10.35
2023-03-14T18:12:46.462Z,10.33
2023-03-14T18:14:38.952Z,10.31
2023-03-14T18:16:31.953Z,10.30
2023-03-14T18:18:24.103Z,10.29
2023-03-14T18:20:15.967Z,10.29
2023-03-14T18:22:08.287Z,10.29
2023-03-14T18:24:01.641Z,10.31
2023-03-14T18:25:53.373Z,10.32
2023-03-14T18:27:45.204Z,10.34
2023-03-14T18:29:37.061Z,10.36
2023-03-14T18:31:30.221Z,10.38
2023-03-14T18:33:22.562Z,10.37
2023-03-14T18:35:14.390Z,10.37
2023-03-14T18:37:06.480Z,10.34
2023-03-14T18:38:58.945Z,10.32
2023-03-14T18:40:50.986Z,10.31
2023-03-14T18:42:43.465Z,10.30
2023-03-14T18:44:35.788Z,10.28
2023-03-14T18:46:27.915Z,10.26
2023-03-14T18:48:19.879Z,10.26
2023-03-14T18:50:12.808Z,10.23
2023-03-14T18:52:04.591Z,10.20
2023-03-14T18:54:08.380Z,10.16
2023-03-14T18:56:01.867Z,10.11
2023-03-14T18:57:53.643Z,10.07
2023-03-14T18:59:45.480Z,10.02
2023-03-14T19:01:37.792Z,9.99
2023-03-14T19:03:30.663Z,9.97
2023-03-14T19:05:22.174Z,9.94
2023-03-14T19:07:14.176Z,9.91
2023-03-14T19:09:06.187Z,9.89
2023-03-14T19:11:01.142Z,9.88
2023-03-14T19:12:53.190Z,9.85
2023-03-14T19:14:44.949Z,9.82
2023-03-14T19:16:36.850Z,9.81
2023-03-14T19:18:28.814Z,9.81
2023-03-14T19:20:20.642Z,9.82
2023-03-14T19:22:12.316Z,9.82
2023-03-14T19:24:05.637Z,9.83
2023-03-14T19:25:57.451Z,9.87
2023-03-14T19:27:49.312Z,9.88
2023-03-14T19:29:42.347Z,9.89
2023-03-14T19:31:33.981Z,9.92
2023-03-14T19:33:26.979Z,9.93
2023-03-14T19:35:19.012Z,9.95
2023-03-14T19:37:11.356Z,9.97
2023-03-14T19:39:05.112Z,9.97
2023-03-14T19:40:59.390Z,9.94
2023-03-14T19:42:51.213Z,9.88
2023-03-14T19:44:43.233Z,9.81
2023-03-14T19:46:36.144Z,9.71
2023-03-14T19:48:30.506Z,9.36
2023-03-14T19:50:22.637Z,9.05
2023-03-14T19:52:14.443Z,8.74
2023-03-14T19:54:06.151Z,8.47
2023-03-14T19:55:57.571Z,8.20
2023-03-14T19:57:49.558Z,7.97
2023-03-14T19:59:41.314Z,7.74
2023-03-14T20:01:34.721Z,7.54
2023-03-14T20:03:26.939Z,7.38
2023-03-14T20:05:23.347Z,7.22
2023-03-14T20:07:15.532Z,7.12
2023-03-14T20:09:08.329Z,6.99
2023-03-14T20:11:04.060Z,6.84
2023-03-14T20:12:55.723Z,6.71
2023-03-14T20:14:47.140Z,6.58
2023-03-14T20:16:39.246Z,6.48
2023-03-14T20:18:31.567Z,6.34
2023-03-14T20:20:23.454Z,6.20
2023-03-14T20:22:15.458Z,6.08
2023-03-14T20:24:07.038Z,5.94
2023-03-14T20:25:59.716Z,5.81
2023-03-14T20:27:54.604Z,5.71
2023-03-14T20:29:48.014Z,5.57
2023-03-14T20:31:40.514Z,5.47
2023-03-14T20:33:36.768Z,5.33
2023-03-14T20:35:31.298Z,5.13
2023-03-14T20:37:23.054Z,4.97
2023-03-14T20:39:15.424Z,4.73
2023-03-14T20:41:08.208Z,4.53
2023-03-14T20:42:59.684Z,4.33
2023-03-14T20:44:52.217Z,4.20
2023-03-14T20:46:44.088Z,4.07
2023-03-14T20:48:36.081Z,3.94
2023-03-14T20:50:27.958Z,3.87
2023-03-14T20:52:19.918Z,3.81
2023-03-14T20:54:14.300Z,3.74
2023-03-14T20:56:06.464Z,3.69
2023-03-14T20:57:58.045Z,3.67
2023-03-14T20:59:49.801Z,3.64
2023-03-14T21:03:51.553Z,3.49
2023-03-14T21:05:46.850Z,3.45
2023-03-14T21:07:41.800Z,3.40
2023-03-14T21:09:33.891Z,3.36
2023-03-14T21:11:26.006Z,3.34
2023-03-14T21:13:17.867Z,3.29
2023-03-14T21:15:10.380Z,3.28
2023-03-14T21:17:02.130Z,3.23
2023-03-14T21:18:53.914Z,3.17
2023-03-14T21:20:46.042Z,3.12
2023-03-14T21:22:38.021Z,3.11
2023-03-14T21:24:29.474Z,3.09
2023-03-14T21:26:21.858Z,3.06
2023-03-14T21:28:13.160Z,3.04
2023-03-14T21:30:05.917Z,3.00
2023-03-14T21:31:57.662Z,2.98
2023-03-14T21:33:49.616Z,2.96
2023-03-14T21:35:41.421Z,2.94
2023-03-14T21:37:32.937Z,2.93
2023-03-14T21:39:24.299Z,2.92
2023-03-14T21:41:16.315Z,2.89
2023-03-14T21:43:08.340Z,2.88
2023-03-14T21:44:59.957Z,2.87
2023-03-14T21:46:51.898Z,2.85
2023-03-14T21:48:44.212Z,2.82
2023-03-14T21:50:35.626Z,2.80
2023-03-14T21:52:26.847Z,2.78
2023-03-14T21:54:21.122Z,2.75
2023-03-14T21:56:13.589Z,2.73
2023-03-14T21:58:05.105Z,2.72
2023-03-14T21:59:56.658Z,2.69
2023-03-14T22:01:48.293Z,2.69
2023-03-14T22:03:39.888Z,2.67
2023-03-14T22:05:31.282Z,2.65
2023-03-14T22:07:23.109Z,2.65
2023-03-14T22:09:14.794Z,2.65
2023-03-14T22:11:07.891Z,2.64
2023-03-14T22:12:59.493Z,2.65
2023-03-14T22:14:50.888Z,2.66
2023-03-14T22:16:42.789Z,2.66
2023-03-14T22:18:34.224Z,2.66
2023-03-14T22:20:26.468Z,2.64
2023-03-14T22:22:18.830Z,2.63
2023-03-14T22:24:10.727Z,2.61
2023-03-14T22:26:02.710Z,2.60
2023-03-14T22:27:54.613Z,2.59
2023-03-14T22:29:46.628Z,2.55
2023-03-14T22:31:38.604Z,2.53
2023-03-14T22:33:31.459Z,2.48
2023-03-14T22:35:23.274Z,2.50
2023-03-14T22:37:15.108Z,2.50
2023-03-14T22:39:07.237Z,2.51
2023-03-14T22:41:02.571Z,2.49
2023-03-14T22:42:54.299Z,2.49
2023-03-14T22:44:46.186Z,2.49
2023-03-14T22:46:38.035Z,2.49
2023-03-14T22:48:29.983Z,2.50
2023-03-14T22:50:21.773Z,2.51
2023-03-14T22:52:13.685Z,2.52
2023-03-14T22:54:05.602Z,2.53
2023-03-14T22:56:01.119Z,2.52
2023-03-14T22:57:53.313Z,2.53
2023-03-14T22:59:45.166Z,2.53
2023-03-14T23:01:37.330Z,2.53
2023-03-14T23:03:29.368Z,2.52
2023-03-14T23:05:21.657Z,2.52
2023-03-14T23:07:13.697Z,2.52
2023-03-14T23:09:05.664Z,2.51
2023-03-14T23:11:02.636Z,2.52
2023-03-14T23:12:57.736Z,2.52
2023-03-14T23:14:49.530Z,2.52
2023-03-14T23:16:41.233Z,2.52
2023-03-14T23:18:33.675Z,2.52
2023-03-14T23:20:25.824Z,2.51
2023-03-14T23:22:17.281Z,2.49
2023-03-14T23:24:09.498Z,2.48
2023-03-14T23:26:04.435Z,2.44
2023-03-14T23:27:56.319Z,2.42
2023-03-14T23:29:48.351Z,2.39
2023-03-14T23:31:41.251Z,2.36
2023-03-14T23:33:33.146Z,2.33
2023-03-14T23:35:25.148Z,2.31
2023-03-14T23:37:18.196Z,2.27
2023-03-14T23:39:11.285Z,2.26
2023-03-14T23:41:03.341Z,2.24
2023-03-14T23:42:55.175Z,2.22
2023-03-14T23:44:46.908Z,2.19
2023-03-14T23:46:38.834Z,2.18
2023-03-14T23:48:33.950Z,2.16
2023-03-14T23:50:25.770Z,2.15
2023-03-14T23:52:17.385Z,2.15
2023-03-14T23:54:09.004Z,2.15
2023-03-14T23:56:01.471Z,2.15
2023-03-14T23:57:53.344Z,2.14
2023-03-14T23:59:45.321Z,2.13
